createdAt,value
2022-11-19T00:02:05.909Z,94.50
2022-11-19T00:04:33.948Z,94.98
2022-11-19T00:07:01.835Z,95.16
2022-11-19T00:09:29.837Z,95.68
2022-11-19T00:12:16.434Z,95.73
2022-11-19T00:14:47.358Z,95.58
2022-11-19T00:17:15.541Z,95.63
2022-11-19T00:19:43.303Z,95.71
2022-11-19T00:22:11.461Z,95.88
2022-11-19T00:24:42.526Z,96.48
2022-11-19T00:27:10.346Z,96.09
2022-11-19T00:29:38.141Z,96.15
2022-11-19T00:32:06.390Z,95.70
2022-11-19T00:34:34.168Z,95.41
2022-11-19T00:37:01.983Z,95.68
2022-11-19T00:39:30.145Z,96.22
2022-11-19T00:41:57.875Z,96.33
2022-11-19T00:44:25.724Z,96.65
2022-11-19T00:46:57.141Z,96.02
2022-11-19T00:49:25.029Z,95.52
2022-11-19T00:51:53.977Z,94.83
2022-11-19T00:54:21.940Z,95.61
2022-11-19T00:56:49.737Z,95.45
2022-11-19T00:59:18.109Z,95.42
2022-11-19T01:01:46.002Z,96.16
2022-11-19T01:04:16.797Z,95.94
2022-11-19T01:06:45.049Z,96.02
2022-11-19T01:09:16.058Z,96.81
2022-11-19T01:11:43.939Z,96.63
2022-11-19T01:14:12.174Z,97.03
2022-11-19T01:16:41.402Z,96.96
2022-11-19T01:19:11.157Z,96.85
2022-11-19T01:21:39.322Z,96.91
2022-11-19T01:24:07.507Z,97.10
2022-11-19T01:26:35.373Z,96.96
2022-11-19T01:29:03.565Z,96.97
2022-11-19T01:31:31.434Z,96.95
2022-11-19T01:34:00.130Z,96.97
2022-11-19T01:36:31.718Z,97.07
2022-11-19T01:38:59.663Z,96.89
2022-11-19T01:41:33.400Z,96.83
2022-11-19T01:44:07.875Z,96.84
2022-11-19T01:46:38.735Z,96.72
2022-11-19T01:49:13.416Z,96.92
2022-11-19T01:52:03.383Z,97.03
2022-11-19T01:54:41.413Z,97.03
2022-11-19T01:57:15.523Z,96.99
2022-11-19T01:59:47.357Z,97.19
2022-11-19T02:02:15.830Z,97.31
2022-11-19T02:04:47.831Z,97.06
2022-11-19T02:07:16.471Z,96.83
2022-11-19T02:09:45.363Z,96.88
2022-11-19T02:12:25.226Z,97.25
2022-11-19T02:15:11.327Z,97.14
2022-11-19T02:18:05.758Z,97.18
2022-11-19T02:20:44.269Z,96.47
2022-11-19T02:23:43.311Z,95.95
2022-11-19T02:26:50.040Z,95.53
2022-11-19T02:29:29.915Z,95.69
2022-11-19T02:32:18.611Z,96.76
2022-11-19T02:35:06.848Z,96.72
2022-11-19T02:37:56.313Z,96.92
2022-11-19T02:40:34.354Z,96.01
2022-11-19T02:43:36.547Z,96.44
2022-11-19T02:46:14.076Z,96.36
2022-11-19T02:48:52.935Z,97.33
2022-11-19T02:51:23.761Z,96.38
2022-11-19T02:53:51.927Z,96.09
2022-11-19T02:56:51.839Z,96.08
2022-11-19T03:00:07.482Z,96.53
2022-11-19T03:03:01.027Z,96.54
2022-11-19T03:05:34.050Z,96.88
2022-11-19T03:08:01.962Z,97.22
2022-11-19T03:10:42.915Z,96.89
2022-11-19T03:13:40.289Z,96.70
2022-11-19T03:16:35.794Z,96.77
2022-11-19T03:19:20.031Z,97.39
2022-11-19T03:21:56.756Z,97.71
2022-11-19T03:25:05.829Z,96.79
2022-11-19T03:27:47.853Z,96.52
2022-11-19T03:30:18.084Z,97.12
2022-11-19T03:33:29.771Z,97.64
2022-11-19T03:36:04.956Z,96.56
2022-11-19T03:38:37.068Z,96.78
2022-11-19T03:41:07.011Z,96.86
2022-11-19T03:43:40.050Z,96.89
2022-11-19T03:46:13.671Z,97.45
2022-11-19T03:48:46.186Z,97.15
2022-11-19T03:51:20.145Z,97.22
2022-11-19T03:53:49.448Z,96.71
2022-11-19T03:56:22.273Z,96.67
2022-11-19T03:58:50.552Z,95.82
2022-11-19T04:01:18.494Z,97.03
2022-11-19T04:04:06.854Z,96.43
2022-11-19T04:06:34.766Z,96.42
2022-11-19T04:09:02.863Z,96.40
2022-11-19T04:11:30.673Z,96.08
2022-11-19T04:13:58.547Z,96.63
2022-11-19T04:16:30.283Z,95.84
2022-11-19T04:18:58.054Z,95.99
2022-11-19T04:21:29.560Z,95.98
2022-11-19T04:23:57.390Z,95.30
2022-11-19T04:26:25.230Z,96.40
2022-11-19T04:28:53.643Z,95.96
2022-11-19T04:31:21.574Z,95.54
2022-11-19T04:33:49.358Z,95.94
2022-11-19T04:36:17.548Z,96.04
2022-11-19T04:38:45.351Z,96.39
2022-11-19T04:41:13.381Z,95.51
2022-11-19T04:43:41.579Z,95.44
2022-11-19T04:46:09.335Z,96.11
2022-11-19T04:48:37.233Z,95.79
2022-11-19T04:51:08.879Z,95.42
2022-11-19T04:53:36.769Z,95.82
2022-11-19T04:56:04.872Z,96.22
2022-11-19T04:58:36.812Z,96.00
2022-11-19T05:01:05.012Z,96.40
2022-11-19T05:03:33.612Z,96.02
2022-11-19T05:06:01.468Z,95.50
2022-11-19T05:08:29.414Z,95.25
2022-11-19T05:10:57.670Z,96.50
2022-11-19T05:13:25.547Z,96.37
2022-11-19T05:15:53.342Z,95.71
2022-11-19T05:18:21.518Z,96.18
2022-11-19T05:20:52.595Z,96.71
2022-11-19T05:23:20.877Z,93.84
2022-11-19T05:25:49.005Z,93.39
2022-11-19T05:28:16.808Z,93.90
2022-11-19T05:30:44.718Z,96.02
2022-11-19T05:33:12.819Z,94.83
2022-11-19T05:35:40.602Z,94.51
2022-11-19T05:38:08.754Z,94.14
2022-11-19T05:40:37.033Z,94.21
2022-11-19T05:43:08.105Z,94.40
2022-11-19T05:45:36.418Z,95.17
2022-11-19T05:48:04.903Z,95.20
2022-11-19T05:50:32.743Z,95.97
2022-11-19T05:53:06.086Z,96.03
2022-11-19T05:55:34.057Z,95.92
2022-11-19T05:58:01.871Z,96.12
2022-11-19T06:00:30.214Z,96.36
2022-11-19T06:02:58.468Z,96.56
2022-11-19T06:05:26.196Z,96.47
2022-11-19T06:07:53.875Z,96.12
2022-11-19T06:10:21.985Z,95.00
2022-11-19T06:12:49.779Z,94.73
2022-11-19T06:15:17.868Z,94.51
2022-11-19T06:17:45.933Z,93.88
2022-11-19T06:20:13.659Z,94.38
2022-11-19T06:22:41.443Z,94.57
2022-11-19T06:25:09.865Z,94.14
2022-11-19T06:27:37.709Z,94.51
2022-11-19T06:30:06.878Z,95.37
2022-11-19T06:32:35.074Z,96.34
2022-11-19T06:35:02.857Z,96.43
2022-11-19T06:37:30.788Z,96.06
2022-11-19T06:39:58.968Z,96.60
2022-11-19T06:42:39.428Z,96.29
2022-11-19T06:45:13.085Z,95.71
2022-11-19T06:47:42.116Z,95.70
2022-11-19T06:50:11.137Z,96.05
2022-11-19T06:52:39.064Z,96.44
2022-11-19T06:55:10.112Z,95.61
2022-11-19T06:57:39.710Z,95.26
2022-11-19T07:00:08.065Z,95.72
2022-11-19T07:02:35.785Z,95.04
2022-11-19T07:05:04.756Z,95.19
2022-11-19T07:07:32.656Z,95.54
2022-11-19T07:10:00.822Z,95.61
2022-11-19T07:12:34.074Z,95.43
2022-11-19T07:15:04.495Z,95.18
2022-11-19T07:17:33.217Z,94.38
2022-11-19T07:20:01.093Z,93.72
2022-11-19T07:22:31.142Z,94.33
2022-11-19T07:24:59.498Z,93.89
2022-11-19T07:27:27.336Z,93.61
2022-11-19T07:29:55.146Z,94.35
2022-11-19T07:32:27.157Z,95.40
2022-11-19T07:34:58.049Z,95.76
2022-11-19T07:37:29.464Z,94.06
2022-11-19T07:39:57.197Z,94.59
2022-11-19T07:42:46.790Z,93.84
2022-11-19T07:45:15.876Z,94.03
2022-11-19T07:47:43.648Z,94.75
2022-11-19T07:50:12.016Z,94.22
2022-11-19T07:52:40.416Z,92.97
2022-11-19T07:55:08.809Z,93.82
2022-11-19T07:57:39.642Z,93.18
2022-11-19T08:00:08.471Z,93.96
2022-11-19T08:02:40.277Z,93.82
2022-11-19T08:05:08.810Z,94.56
2022-11-19T08:07:39.633Z,94.51
2022-11-19T08:10:08.283Z,92.77
2022-11-19T08:12:36.816Z,94.29
2022-11-19T08:15:04.878Z,94.52
2022-11-19T08:17:51.479Z,93.75
2022-11-19T08:20:19.824Z,93.60
2022-11-19T08:22:47.518Z,93.18
2022-11-19T08:25:15.393Z,93.21
2022-11-19T08:27:43.837Z,93.96
2022-11-19T08:30:11.828Z,94.04
2022-11-19T08:32:42.849Z,93.88
2022-11-19T08:35:11.061Z,94.06
2022-11-19T08:37:38.820Z,93.97
2022-11-19T08:40:07.236Z,93.98
2022-11-19T08:42:53.629Z,94.43
2022-11-19T08:45:22.715Z,93.86
2022-11-19T08:47:50.860Z,94.92
2022-11-19T08:50:19.072Z,94.06
2022-11-19T08:52:46.981Z,93.56
2022-11-19T08:55:15.187Z,92.77
2022-11-19T08:57:42.978Z,93.42
2022-11-19T09:00:11.480Z,93.29
2022-11-19T09:02:39.718Z,93.87
2022-11-19T09:05:11.882Z,94.61
2022-11-19T09:07:45.983Z,93.48
2022-11-19T09:10:13.867Z,93.66
2022-11-19T09:12:45.062Z,93.46
2022-11-19T09:15:13.436Z,93.97
2022-11-19T09:17:46.949Z,92.84
2022-11-19T09:20:19.069Z,93.80
2022-11-19T09:22:46.995Z,93.81
2022-11-19T09:25:15.437Z,93.39
2022-11-19T09:27:43.311Z,94.20
2022-11-19T09:30:11.408Z,93.62
2022-11-19T09:32:39.838Z,93.85
2022-11-19T09:35:08.005Z,94.70
2022-11-19T09:37:38.712Z,94.81
2022-11-19T09:40:08.682Z,92.87
2022-11-19T09:42:57.906Z,93.85
2022-11-19T09:45:30.383Z,93.49
2022-11-19T09:48:13.664Z,94.23
2022-11-19T09:50:53.594Z,95.24
2022-11-19T09:53:24.692Z,93.06
2022-11-19T09:55:54.579Z,94.08
2022-11-19T09:58:38.266Z,94.32
2022-11-19T10:01:06.958Z,93.41
2022-11-19T10:03:35.138Z,92.87
2022-11-19T10:06:12.035Z,93.81
2022-11-19T10:08:55.399Z,94.32
2022-11-19T10:11:44.421Z,93.57
2022-11-19T10:14:49.402Z,93.71
2022-11-19T10:17:26.016Z,94.75
2022-11-19T10:20:12.517Z,94.78
2022-11-19T10:22:57.719Z,94.39
2022-11-19T10:25:38.575Z,94.52
2022-11-19T10:28:19.516Z,94.11
2022-11-19T10:30:55.658Z,95.27
2022-11-19T10:33:35.822Z,93.76
2022-11-19T10:36:14.688Z,95.13
2022-11-19T10:39:01.291Z,93.39
2022-11-19T10:41:43.257Z,94.27
2022-11-19T10:44:40.672Z,94.32
2022-11-19T10:47:22.647Z,93.25
2022-11-19T10:49:54.797Z,95.52
2022-11-19T10:52:38.342Z,94.72
2022-11-19T10:58:19.158Z,94.69
2022-11-19T11:00:47.660Z,94.78
2022-11-19T11:03:23.011Z,94.91
2022-11-19T11:06:05.604Z,95.30
2022-11-19T11:08:34.512Z,93.69
2022-11-19T11:11:05.666Z,93.60
2022-11-19T11:13:57.337Z,95.03
2022-11-19T11:16:47.031Z,94.84
2022-11-19T11:19:20.206Z,95.16
2022-11-19T11:21:53.115Z,95.40
2022-11-19T11:24:22.143Z,94.33
2022-11-19T11:27:24.545Z,94.76
2022-11-19T11:30:15.109Z,95.55
2022-11-19T11:32:43.566Z,94.26
2022-11-19T11:35:34.751Z,96.06
2022-11-19T11:38:03.994Z,94.54
2022-11-19T11:40:32.408Z,95.53
2022-11-19T11:43:00.152Z,95.17
2022-11-19T11:45:33.193Z,94.30
2022-11-19T11:48:19.841Z,95.66
2022-11-19T11:50:48.195Z,94.68
2022-11-19T11:53:28.827Z,95.99
2022-11-19T11:56:03.268Z,94.70
2022-11-19T11:58:35.120Z,95.33
2022-11-19T12:01:20.158Z,94.97
2022-11-19T12:03:59.606Z,95.25
2022-11-19T12:06:40.423Z,94.62
2022-11-19T12:09:29.991Z,96.10
2022-11-19T12:12:09.111Z,95.44
2022-11-19T12:14:37.303Z,93.42
2022-11-19T12:17:35.838Z,95.27
2022-11-19T12:20:04.151Z,95.42
2022-11-19T12:22:57.090Z,94.26
2022-11-19T12:25:46.771Z,95.00
2022-11-19T12:28:39.741Z,94.73
2022-11-19T12:31:19.664Z,95.14
2022-11-19T12:33:56.486Z,95.03
2022-11-19T12:36:39.646Z,94.46
2022-11-19T12:39:39.726Z,94.30
2022-11-19T12:42:30.066Z,95.12
2022-11-19T12:45:17.794Z,94.79
2022-11-19T12:48:10.665Z,94.44
2022-11-19T12:51:04.711Z,94.97
2022-11-19T12:54:07.230Z,95.80
2022-11-19T12:56:46.985Z,94.81
2022-11-19T12:59:52.462Z,95.71
2022-11-19T13:02:41.370Z,95.40
2022-11-19T13:05:37.712Z,94.98
2022-11-19T13:08:12.944Z,94.10
2022-11-19T13:10:45.744Z,94.19
2022-11-19T13:13:17.677Z,94.26
2022-11-19T13:16:03.197Z,94.88
2022-11-19T13:18:34.751Z,95.15
2022-11-19T13:21:16.908Z,94.78
2022-11-19T13:23:48.724Z,94.32
2022-11-19T13:26:32.512Z,93.91
2022-11-19T13:29:05.968Z,94.09
2022-11-19T13:31:53.359Z,93.17
2022-11-19T13:34:38.565Z,92.89
2022-11-19T13:37:16.173Z,93.38
2022-11-19T13:39:52.492Z,94.07
2022-11-19T13:42:41.420Z,93.63
2022-11-19T13:45:16.049Z,93.96
2022-11-19T13:48:00.229Z,94.19
2022-11-19T13:50:39.823Z,94.09
2022-11-19T13:53:42.630Z,94.19
2022-11-19T13:56:15.853Z,93.91
2022-11-19T13:58:49.907Z,94.55
2022-11-19T14:01:28.441Z,94.19
2022-11-19T14:04:14.551Z,94.56
2022-11-19T14:06:50.325Z,93.25
2022-11-19T14:10:02.997Z,92.78
2022-11-19T14:13:09.989Z,93.14
2022-11-19T14:16:18.681Z,94.26
2022-11-19T14:19:08.624Z,93.86
2022-11-19T14:21:58.164Z,92.52
2022-11-19T14:24:44.736Z,93.48
2022-11-19T14:27:29.719Z,94.86
2022-11-19T14:30:19.573Z,94.66
2022-11-19T14:32:52.130Z,94.70
2022-11-19T14:35:23.921Z,93.95
2022-11-19T14:38:50.798Z,94.92
2022-11-19T14:41:30.750Z,94.64
2022-11-19T14:44:15.644Z,93.62
2022-11-19T14:46:47.326Z,92.87
2022-11-19T14:49:32.184Z,92.17
2022-11-19T14:52:01.136Z,92.13
2022-11-19T14:54:45.459Z,92.71
2022-11-19T14:57:28.351Z,93.16
2022-11-19T15:00:04.706Z,93.24
2022-11-19T15:02:32.570Z,93.68
2022-11-19T15:05:19.398Z,93.12
2022-11-19T15:07:56.223Z,93.76
2022-11-19T15:10:30.653Z,94.16
2022-11-19T15:13:26.563Z,93.41
2022-11-19T15:16:17.825Z,93.36
2022-11-19T15:18:45.729Z,93.14
2022-11-19T15:21:29.124Z,93.34
2022-11-19T15:24:15.772Z,92.38
2022-11-19T15:26:49.750Z,91.77
2022-11-19T15:29:23.954Z,92.15
2022-11-19T15:32:19.676Z,91.46
2022-11-19T15:35:09.340Z,92.10
2022-11-19T15:37:49.164Z,92.57
2022-11-19T15:40:21.656Z,92.05
2022-11-19T15:43:08.554Z,92.59
2022-11-19T15:46:01.819Z,91.87
2022-11-19T15:49:21.458Z,92.90
2022-11-19T15:52:04.528Z,92.44
2022-11-19T15:54:34.614Z,91.18
2022-11-19T15:57:04.486Z,91.38
2022-11-19T15:59:39.465Z,92.23
2022-11-19T16:02:19.982Z,92.37
2022-11-19T16:04:51.190Z,92.08
2022-11-19T16:10:19.911Z,91.81
2022-11-19T16:13:13.999Z,92.29
2022-11-19T16:16:11.801Z,92.56
2022-11-19T16:18:50.841Z,92.02
2022-11-19T16:21:27.893Z,92.43
2022-11-19T16:24:14.982Z,91.80
2022-11-19T16:26:44.587Z,92.18
2022-11-19T16:29:22.385Z,93.00
2022-11-19T16:31:56.998Z,93.37
2022-11-19T16:34:29.494Z,91.98
2022-11-19T16:36:58.498Z,91.93
2022-11-19T16:39:32.016Z,93.08
2022-11-19T16:42:20.053Z,92.80
2022-11-19T16:44:50.498Z,91.65
2022-11-19T16:47:38.124Z,91.83
2022-11-19T16:50:27.495Z,92.29
2022-11-19T16:52:56.536Z,92.02
2022-11-19T16:55:24.547Z,92.22
2022-11-19T16:58:11.659Z,92.27
2022-11-19T17:00:41.429Z,92.02
2022-11-19T17:03:21.371Z,91.71
2022-11-19T17:05:52.355Z,91.42
2022-11-19T17:08:24.115Z,91.90
2022-11-19T17:11:33.989Z,91.60
2022-11-19T17:14:23.241Z,92.03
2022-11-19T17:16:53.866Z,92.28
2022-11-19T17:19:33.644Z,92.17
2022-11-19T17:22:14.721Z,91.27
2022-11-19T17:24:44.902Z,91.14
2022-11-19T17:27:28.005Z,90.98
2022-11-19T17:30:02.078Z,91.97
2022-11-19T17:33:01.249Z,91.84
2022-11-19T17:35:46.408Z,91.68
2022-11-19T17:38:30.192Z,92.03
2022-11-19T17:41:01.318Z,91.81
2022-11-19T17:43:58.819Z,91.48
2022-11-19T17:46:29.060Z,92.11
2022-11-19T17:48:57.436Z,91.51
2022-11-19T17:51:26.718Z,91.46
2022-11-19T17:53:56.925Z,91.58
2022-11-19T17:56:29.965Z,90.93
2022-11-19T17:58:59.953Z,91.49
2022-11-19T18:01:28.552Z,90.87
2022-11-19T18:03:56.950Z,91.27
2022-11-19T18:06:24.955Z,93.13
2022-11-19T18:08:52.932Z,92.85
2022-11-19T18:11:26.532Z,91.92
2022-11-19T18:14:10.848Z,90.61
2022-11-19T18:16:42.136Z,91.10
2022-11-19T18:19:13.145Z,91.53
2022-11-19T18:21:43.412Z,90.92
2022-11-19T18:24:12.579Z,92.26
2022-11-19T18:26:40.715Z,92.23
2022-11-19T18:29:09.196Z,92.65
2022-11-19T18:31:44.526Z,91.46
2022-11-19T18:34:23.701Z,91.76
2022-11-19T18:36:51.915Z,91.42
2022-11-19T18:39:20.220Z,92.37
2022-11-19T18:41:49.129Z,90.98
2022-11-19T18:44:33.849Z,91.80
2022-11-19T18:47:11.984Z,91.17
2022-11-19T18:49:40.584Z,90.84
2022-11-19T18:52:12.279Z,91.32
2022-11-19T18:54:40.200Z,90.59
2022-11-19T18:57:10.187Z,90.23
2022-11-19T18:59:38.687Z,90.83
2022-11-19T19:02:07.238Z,90.83
2022-11-19T19:04:35.568Z,90.85
2022-11-19T19:07:03.306Z,90.81
2022-11-19T19:09:31.144Z,91.24
2022-11-19T19:12:17.647Z,91.33
2022-11-19T19:14:47.648Z,91.74
2022-11-19T19:17:16.787Z,91.37
2022-11-19T19:19:45.030Z,90.83
2022-11-19T19:22:16.099Z,91.92
2022-11-19T19:24:44.549Z,92.14
2022-11-19T19:27:12.435Z,90.89
2022-11-19T19:29:40.300Z,91.40
2022-11-19T19:32:08.649Z,90.96
2022-11-19T19:34:37.014Z,90.73
2022-11-19T19:37:05.612Z,90.82
2022-11-19T19:39:33.947Z,91.39
2022-11-19T19:42:01.762Z,91.88
2022-11-19T19:44:29.620Z,91.27
2022-11-19T19:47:00.809Z,90.84
2022-11-19T19:49:28.907Z,90.93
2022-11-19T19:51:57.168Z,90.45
2022-11-19T19:54:25.148Z,92.58
2022-11-19T19:56:53.508Z,92.51
2022-11-19T19:59:22.845Z,92.11
2022-11-19T20:01:51.876Z,91.91
2022-11-19T20:04:20.046Z,91.86
2022-11-19T20:06:48.486Z,91.09
2022-11-19T20:09:19.552Z,91.21
2022-11-19T20:11:47.819Z,91.18
2022-11-19T20:14:15.721Z,90.80
2022-11-19T20:16:43.622Z,90.61
2022-11-19T20:19:15.546Z,90.81
2022-11-19T20:21:43.740Z,90.54
2022-11-19T20:24:13.668Z,90.56
2022-11-19T20:26:42.958Z,91.04
2022-11-19T20:29:13.477Z,90.34
2022-11-19T20:31:46.386Z,90.28
2022-11-19T20:34:15.397Z,90.34
2022-11-19T20:36:44.365Z,90.02
2022-11-19T20:39:12.955Z,89.92
2022-11-19T20:42:02.649Z,90.38
2022-11-19T20:44:30.792Z,90.18
2022-11-19T20:47:02.489Z,91.27
2022-11-19T20:49:35.971Z,90.73
2022-11-19T20:52:04.320Z,90.55
2022-11-19T20:54:32.972Z,90.44
2022-11-19T20:57:01.078Z,90.02
2022-11-19T20:59:29.653Z,90.12
2022-11-19T21:01:58.077Z,90.81
2022-11-19T21:04:28.780Z,89.85
2022-11-19T21:06:57.165Z,90.34
2022-11-19T21:09:25.638Z,89.64
2022-11-19T21:11:53.683Z,90.15
2022-11-19T21:14:21.969Z,90.27
2022-11-19T21:16:49.931Z,90.03
2022-11-19T21:19:18.023Z,89.67
2022-11-19T21:21:46.320Z,89.36
2022-11-19T21:24:17.081Z,89.10
2022-11-19T21:26:45.363Z,89.36
2022-11-19T21:29:13.637Z,89.48
2022-11-19T21:31:50.377Z,89.25
2022-11-19T21:34:20.977Z,88.80
2022-11-19T21:36:49.866Z,89.40
2022-11-19T21:39:19.734Z,89.44
2022-11-19T21:41:48.177Z,90.45
2022-11-19T21:44:21.122Z,89.67
2022-11-19T21:46:50.736Z,90.00
2022-11-19T21:49:22.724Z,89.92
2022-11-19T21:51:51.212Z,89.42
2022-11-19T21:54:19.279Z,89.12
2022-11-19T21:56:47.657Z,89.23
2022-11-19T21:59:15.825Z,89.18
2022-11-19T22:01:43.627Z,89.75
2022-11-19T22:04:15.761Z,90.00
2022-11-19T22:06:43.579Z,89.88
2022-11-19T22:09:11.754Z,90.75
2022-11-19T22:11:39.415Z,89.64
2022-11-19T22:14:09.006Z,88.57
2022-11-19T22:16:39.993Z,89.65
2022-11-19T22:19:14.184Z,89.31
2022-11-19T22:21:42.465Z,89.26
2022-11-19T22:26:58.238Z,89.55
2022-11-19T22:29:26.047Z,89.49
2022-11-19T22:31:53.831Z,89.75
2022-11-19T22:34:21.934Z,89.26
2022-11-19T22:36:50.104Z,89.27
2022-11-19T22:39:18.841Z,89.42
2022-11-19T22:41:47.200Z,89.52
2022-11-19T22:44:15.047Z,88.82
2022-11-19T22:46:42.933Z,89.08
2022-11-19T22:49:11.362Z,90.32
2022-11-19T22:51:39.120Z,90.42
2022-11-19T22:54:16.751Z,89.54
2022-11-19T22:56:44.857Z,89.36
2022-11-19T22:59:12.941Z,89.79
2022-11-19T23:01:40.760Z,91.00
2022-11-19T23:04:15.275Z,91.84
2022-11-19T23:06:43.047Z,90.37
2022-11-19T23:09:11.252Z,89.51
2022-11-19T23:11:57.594Z,89.38
2022-11-19T23:14:25.854Z,89.50
2022-11-19T23:16:53.637Z,90.36
2022-11-19T23:19:21.825Z,90.75
2022-11-19T23:21:50.237Z,91.23
2022-11-19T23:24:17.943Z,91.49
2022-11-19T23:26:45.739Z,91.77
2022-11-19T23:29:16.948Z,91.93
2022-11-19T23:31:44.698Z,90.93
2022-11-19T23:34:12.506Z,90.54
2022-11-19T23:36:41.969Z,90.39
2022-11-19T23:39:15.238Z,91.36
2022-11-19T23:41:44.360Z,90.93
2022-11-19T23:44:12.489Z,92.21
2022-11-19T23:46:40.673Z,93.30
2022-11-19T23:49:08.964Z,92.23
2022-11-19T23:51:40.313Z,92.17
2022-11-19T23:54:08.668Z,92.77
2022-11-19T23:56:36.762Z,93.60
2022-11-19T23:59:05.597Z,95.71
